ASN logo
Last updated: 7 April 2020
Statuts:
Date:lundi 27 janvier 2020
Heure:ca 07:36
Type/Sous-type:Silhouette image of generic MD83 model; specific model in this crash may look slightly different
McDonnell Douglas MD-83
Compagnie:Caspian Airlines
Immatriculation: EP-CPZ
Numéro de série: 53464/2091
Année de Fabrication: 1994
Moteurs: 2 Pratt & Whitney JT8D-219
Equipage:victimes: 0 / à bord: 8
Passagers:victimes: 0 / à bord: 136
Total:victimes: 0 / à bord: 144
Dégats de l'appareil: Perte Totale
Conséquences: Written off (damaged beyond repair)
Lieu de l'accident:Bandar Mahshahr Airport (MRX) (   Iran)
Phase de vol: A l'atterrissage (LDG)
Nature:Transport de Passagers Nat.
Aéroport de départ:Tehran-Mehrabad Airport (THR/OIII), Iran
Aéroport de destination:Bandar Mahshahr Airport (MRX/OIAM), Iran
Numéro de vol:6936
Détails:
A McDonnell Douglas MD-83 of Caspian Airlines suffered a runway excursion after landing on runway 13 at Bandar Mahshahr Airport in Iran. The aircraft stopped 90 meters beyond the paved end of the runway stopway in the middle of a road.
All occupants safely evacuated the aircraft.

The aircraft took off from Tehran-Mehrabad Airport at 06:24 hours local time. Arriving near Bandar Mahshahr, the air traffic controller reported wind from 280 degrees at 6 knots and stated offered a VOR/DME approach to runway 31. The flight crew requested and was cleared for a VOR/DME approach to runway 13. As a result the aircraft landed with a 5.2 knot tailwind component.
Runway 13 has a Landing Distance Available (LDA) of 8874 feet (2705 m) but the aircraft failed to stop.

Sources:
» CAO Iran

METAR Weather report:
03:00 UTC / 06:30 local time:
OIAM 270300Z 29008KT 8000 NSC 06/04 Q1022

04:00 UTC / 07:30 local time:
OIAM 270400Z 28006KT CAVOK 06/04 Q1023

05:00 UTC / 08:30 local time:
OIAM 270500Z 29006KT 7000 NSC 07/05 Q1023


Photos

photo of MD-83-EP-CPZ
accident date: 27-01-2020
type: McDonnell Douglas MD-83
registration: EP-CPZ
photo of MD-83-EP-CPZ
accident date: 27-01-2020
type: McDonnell Douglas MD-83
registration: EP-CPZ
photo of MD-83-EP-CPZ
accident date: 27-01-2020
type: McDonnell Douglas MD-83
registration: EP-CPZ
photo of MD-83-EP-CPZ
accident date: 27-01-2020
type: McDonnell Douglas MD-83
registration: EP-CPZ
photo of MD-83-EP-CPZ
accident date: 27-01-2020
type: McDonnell Douglas MD-83
registration: EP-CPZ
photo of MD-83-EP-CPZ
accident date: 27-01-2020
type: McDonnell Douglas MD-83
registration: EP-CPZ
photo of MD-83-EP-CPZ
accident date: 27-01-2020
type: McDonnell Douglas MD-83
registration: EP-CPZ
 

Aircraft history
date registration operator remarks
F-GRMG AOM 27 October 1994 delivered
F-GRMG Air Lib October 2001
C-FKLO Jetsgo 16 July 2003 registered
N161BS Wells Fargo Bank Northwest 21 July 2005 registered
N161BS Avianca 15 October 2005 leased
XT-ABF Air Burkina 16 June 2009
UR-CJY Khors Aircompany 12 June 2012
UR-CJY Caspian Airlines August 2012
EP-CPZ Caspian Airlines September 2012

Plan
Ce plan montre l'aéroport de départ ainsi que la supposée destination du vol. La ligne fixe reliant les deux aéroports n'est pas le plan de vol exact.
La distance entre Tehran-Mehrabad Airport et Bandar Mahshahr Airport est de 601 km (376 miles).
Accident location: Approximate; accuracy within a few kilometers.

Les informations ci-dessus ne représentent pas l'opinion de la 'Flight Safety Foundation' ou de 'Aviation Safety Network' sur les causes de l'accident. Ces informations prélimimaires sont basées sur les faits tel qu'ils sont connus à ce jour.
languages: languages

Share